createdAt,value
2018-02-13T00:01:27.914Z,2.50
2018-02-13T00:03:54.374Z,2.63
2018-02-13T00:06:20.727Z,2.60
2018-02-13T00:08:47.164Z,2.27
2018-02-13T00:11:14.704Z,3.00
2018-02-13T00:13:41.022Z,2.57
2018-02-13T00:16:07.494Z,2.67
2018-02-13T00:18:33.801Z,2.30
2018-02-13T00:21:00.124Z,2.23
2018-02-13T00:23:26.690Z,2.30
2018-02-13T00:25:53.535Z,2.40
2018-02-13T00:28:20.277Z,2.50
2018-02-13T00:30:46.594Z,2.40
2018-02-13T00:33:12.893Z,2.43
2018-02-13T00:35:40.315Z,2.63
2018-02-13T00:38:06.641Z,2.40
2018-02-13T00:40:33.345Z,2.40
2018-02-13T00:43:00.419Z,2.70
2018-02-13T00:45:26.733Z,2.50
2018-02-13T00:47:53.937Z,2.13
2018-02-13T00:50:20.256Z,2.60
2018-02-13T00:52:46.667Z,2.50
2018-02-13T00:55:13.865Z,2.57
2018-02-13T00:57:40.164Z,2.50
2018-02-13T01:00:07.046Z,2.73
2018-02-13T01:02:33.731Z,2.37
2018-02-13T01:05:00.034Z,2.30
2018-02-13T01:07:26.750Z,2.70
2018-02-13T01:09:53.554Z,2.83
2018-02-13T01:12:20.365Z,2.20
2018-02-13T01:14:46.791Z,2.90
2018-02-13T01:17:13.550Z,2.47
2018-02-13T01:19:40.304Z,2.40
2018-02-13T01:22:06.952Z,2.77
2018-02-13T01:24:33.737Z,2.53
2018-02-13T01:27:01.070Z,2.43
2018-02-13T01:29:27.372Z,2.50
2018-02-13T01:31:54.128Z,2.57
2018-02-13T01:34:20.859Z,2.30
2018-02-13T01:36:47.164Z,2.67
2018-02-13T01:39:14.618Z,2.30
2018-02-13T01:41:42.133Z,2.70
2018-02-13T01:44:08.450Z,2.20
2018-02-13T01:46:34.752Z,2.30
2018-02-13T01:49:02.214Z,2.50
2018-02-13T01:51:29.744Z,2.60
2018-02-13T01:53:56.712Z,2.83
2018-02-13T01:56:23.464Z,2.33
2018-02-13T01:58:50.281Z,2.17
2018-02-13T02:01:16.822Z,2.47
2018-02-13T02:03:43.629Z,2.23
2018-02-13T02:06:09.946Z,2.10
2018-02-13T02:08:37.460Z,2.10
2018-02-13T02:11:04.230Z,2.40
2018-02-13T02:13:30.554Z,2.13
2018-02-13T02:15:57.171Z,2.37
2018-02-13T02:18:23.864Z,2.37
2018-02-13T02:20:51.402Z,2.43
2018-02-13T02:23:17.825Z,2.70
2018-02-13T02:25:44.485Z,2.50
2018-02-13T02:28:10.780Z,2.60
2018-02-13T02:30:37.583Z,2.40
2018-02-13T02:33:04.403Z,2.43
2018-02-13T02:35:30.720Z,2.10
2018-02-13T02:37:57.496Z,2.50
2018-02-13T02:40:24.232Z,2.30
2018-02-13T02:43:04.958Z,2.80
2018-02-13T02:45:32.565Z,2.10
2018-02-13T02:47:59.308Z,2.57
2018-02-13T02:50:25.612Z,2.40
2018-02-13T02:52:52.402Z,2.67
2018-02-13T02:55:19.138Z,2.67
2018-02-13T02:57:45.994Z,2.30
2018-02-13T03:00:12.739Z,2.50
2018-02-13T03:02:39.475Z,2.40
2018-02-13T03:05:05.768Z,2.53
2018-02-13T03:07:33.284Z,2.43
2018-02-13T03:09:59.897Z,2.60
2018-02-13T03:12:26.583Z,2.70
2018-02-13T03:14:52.876Z,2.40
2018-02-13T03:17:19.525Z,2.30
2018-02-13T03:19:46.282Z,2.13
2018-02-13T03:22:12.569Z,2.73
2018-02-13T03:24:40.022Z,2.70
2018-02-13T03:27:06.687Z,2.47
2018-02-13T03:29:33.726Z,2.93
2018-02-13T03:32:01.071Z,2.40
2018-02-13T03:34:27.804Z,2.10
2018-02-13T03:36:54.343Z,2.60
2018-02-13T03:39:21.177Z,2.27
2018-02-13T03:41:47.997Z,2.80
2018-02-13T03:44:14.292Z,2.80
2018-02-13T03:46:41.161Z,2.70
2018-02-13T03:49:08.570Z,2.30
2018-02-13T03:51:35.095Z,2.57
2018-02-13T03:54:01.396Z,2.10
2018-02-13T03:56:28.909Z,2.73
2018-02-13T03:58:55.679Z,2.50
2018-02-13T04:01:23.494Z,2.50
2018-02-13T04:03:50.177Z,3.27
2018-02-13T04:06:16.604Z,2.17
2018-02-13T04:08:43.269Z,2.90
2018-02-13T04:11:09.986Z,2.33
2018-02-13T04:13:36.280Z,2.50
2018-02-13T04:16:03.797Z,2.30
2018-02-13T04:18:30.545Z,1.73
2018-02-13T04:20:56.835Z,2.40
2018-02-13T04:23:23.514Z,2.03
2018-02-13T04:25:50.168Z,2.47
2018-02-13T04:28:16.807Z,2.30
2018-02-13T04:30:43.266Z,2.00
2018-02-13T04:33:10.089Z,2.43
2018-02-13T04:35:36.835Z,2.30
2018-02-13T04:38:03.588Z,2.10
2018-02-13T04:40:29.886Z,1.83
2018-02-13T04:42:56.586Z,1.90
2018-02-13T04:45:23.099Z,1.80
2018-02-13T04:47:49.754Z,1.90
2018-02-13T04:50:16.194Z,1.93
2018-02-13T04:52:42.496Z,1.90
2018-02-13T04:55:09.133Z,1.97
2018-02-13T04:57:35.631Z,2.10
2018-02-13T05:00:02.448Z,2.03
2018-02-13T05:02:29.201Z,2.20
2018-02-13T05:04:55.785Z,2.00
2018-02-13T05:07:23.226Z,2.37
2018-02-13T05:09:50.041Z,2.00
2018-02-13T05:12:16.687Z,1.80
2018-02-13T05:14:43.443Z,1.80
2018-02-13T05:17:10.079Z,1.90
2018-02-13T05:19:36.780Z,2.20
2018-02-13T05:22:03.264Z,1.70
2018-02-13T05:24:29.995Z,1.67
2018-02-13T05:26:56.654Z,1.87
2018-02-13T05:29:23.092Z,2.30
2018-02-13T05:31:49.403Z,1.80
2018-02-13T05:34:16.075Z,1.97
2018-02-13T05:36:42.726Z,2.07
2018-02-13T05:39:09.635Z,2.30
2018-02-13T05:41:36.307Z,2.00
2018-02-13T05:44:02.745Z,2.20
2018-02-13T05:46:29.558Z,2.33
2018-02-13T05:48:56.595Z,1.80
2018-02-13T05:51:24.209Z,2.07
2018-02-13T05:53:50.939Z,2.10
2018-02-13T05:56:17.609Z,2.00
2018-02-13T05:58:44.520Z,2.27
2018-02-13T06:01:11.296Z,1.87
2018-02-13T06:03:37.965Z,2.00
2018-02-13T06:06:04.276Z,2.23
2018-02-13T06:08:30.934Z,2.13
2018-02-13T06:10:57.629Z,1.80
2018-02-13T06:13:24.941Z,1.90
2018-02-13T06:15:51.253Z,1.93
2018-02-13T06:18:17.901Z,1.70
2018-02-13T06:20:44.773Z,1.70
2018-02-13T06:23:11.147Z,2.10
2018-02-13T06:25:38.684Z,1.97
2018-02-13T06:28:05.508Z,1.97
2018-02-13T06:30:31.815Z,2.00
2018-02-13T06:32:58.620Z,1.90
2018-02-13T06:35:25.360Z,2.07
2018-02-13T06:37:51.672Z,1.93
2018-02-13T06:40:18.407Z,2.13
2018-02-13T06:42:45.087Z,2.30
2018-02-13T06:45:11.836Z,2.00
2018-02-13T06:47:38.372Z,1.93
2018-02-13T06:50:05.205Z,2.23
2018-02-13T06:52:31.509Z,1.80
2018-02-13T06:54:58.197Z,2.00
2018-02-13T06:57:24.872Z,2.00
2018-02-13T06:59:52.393Z,2.40
2018-02-13T07:02:18.819Z,2.13
2018-02-13T07:04:45.572Z,2.10
2018-02-13T07:07:11.888Z,1.93
2018-02-13T07:09:38.653Z,2.10
2018-02-13T07:12:05.390Z,1.70
2018-02-13T07:14:31.688Z,2.10
2018-02-13T07:16:58.742Z,2.10
2018-02-13T07:19:25.219Z,2.00
2018-02-13T07:21:51.883Z,1.60
2018-02-13T07:24:18.187Z,1.90
2018-02-13T07:26:51.424Z,1.80
2018-02-13T07:29:18.152Z,1.73
2018-02-13T07:31:44.456Z,1.87
2018-02-13T07:34:10.805Z,2.07
2018-02-13T07:36:37.357Z,1.83
2018-02-13T07:39:03.790Z,1.80
2018-02-13T07:41:30.107Z,1.73
2018-02-13T07:43:56.566Z,1.60
2018-02-13T07:46:22.900Z,1.83
2018-02-13T07:48:49.216Z,1.67
2018-02-13T07:51:15.827Z,1.63
2018-02-13T07:53:42.886Z,1.80
2018-02-13T07:56:09.943Z,1.90
2018-02-13T07:58:37.144Z,2.00
2018-02-13T08:01:03.466Z,2.03
2018-02-13T08:03:29.764Z,2.43
2018-02-13T08:05:56.974Z,1.60
2018-02-13T08:08:23.356Z,1.93
2018-02-13T08:10:50.481Z,1.83
2018-02-13T08:13:16.966Z,2.00
2018-02-13T08:15:43.302Z,1.80
2018-02-13T08:18:10.131Z,1.77
2018-02-13T08:20:37.189Z,2.07
2018-02-13T08:23:04.637Z,2.03
2018-02-13T08:25:31.692Z,2.00
2018-02-13T08:27:58.515Z,2.00
2018-02-13T08:30:25.167Z,1.77
2018-02-13T08:32:51.496Z,2.30
2018-02-13T08:35:18.324Z,2.50
2018-02-13T08:37:44.635Z,2.50
2018-02-13T08:40:11.025Z,2.63
2018-02-13T08:42:37.472Z,2.70
2018-02-13T08:45:03.843Z,2.97
2018-02-13T08:47:30.887Z,3.30
2018-02-13T08:49:58.087Z,3.30
2018-02-13T08:52:24.400Z,3.07
2018-02-13T08:54:51.056Z,3.70
2018-02-13T08:57:17.371Z,3.17
2018-02-13T08:59:43.682Z,3.20
2018-02-13T09:02:10.856Z,3.67
2018-02-13T09:04:37.731Z,3.10
2018-02-13T09:07:04.143Z,3.30
2018-02-13T09:09:30.501Z,3.13
2018-02-13T09:11:57.030Z,3.20
2018-02-13T09:14:23.391Z,3.50
2018-02-13T09:16:50.011Z,2.97
2018-02-13T09:19:23.439Z,2.67
2018-02-13T09:21:49.741Z,2.50
2018-02-13T09:24:16.048Z,2.20
2018-02-13T09:26:43.326Z,2.37
2018-02-13T09:29:10.375Z,2.87
2018-02-13T09:31:37.717Z,3.00
2018-02-13T09:34:05.232Z,2.50
2018-02-13T09:36:31.551Z,2.37
2018-02-13T09:38:57.855Z,2.20
2018-02-13T09:41:25.129Z,2.40
2018-02-13T09:43:51.468Z,2.47
2018-02-13T09:46:17.814Z,1.73
2018-02-13T09:48:44.279Z,2.27
2018-02-13T09:51:10.601Z,1.87
2018-02-13T09:53:36.928Z,2.43
2018-02-13T09:56:03.510Z,2.00
2018-02-13T09:58:30.041Z,2.20
2018-02-13T10:00:56.369Z,2.47
2018-02-13T10:03:22.739Z,1.97
2018-02-13T10:05:49.171Z,2.33
2018-02-13T10:08:15.486Z,2.03
2018-02-13T10:10:41.812Z,1.80
2018-02-13T10:13:08.259Z,2.13
2018-02-13T10:15:34.625Z,2.33
2018-02-13T10:18:01.046Z,2.03
2018-02-13T10:20:27.542Z,1.67
2018-02-13T10:22:54.276Z,1.70
2018-02-13T10:25:20.593Z,1.80
2018-02-13T10:27:47.880Z,1.60
2018-02-13T10:30:14.356Z,1.70
2018-02-13T10:32:40.667Z,1.80
2018-02-13T10:35:07.019Z,1.83
2018-02-13T10:37:33.457Z,1.70
2018-02-13T10:39:59.775Z,1.70
2018-02-13T10:42:26.091Z,1.97
2018-02-13T10:44:53.283Z,2.00
2018-02-13T10:47:19.609Z,1.63
2018-02-13T10:49:46.209Z,1.60
2018-02-13T10:52:12.619Z,1.60
2018-02-13T10:54:39.272Z,1.80
2018-02-13T10:57:05.996Z,1.70
2018-02-13T10:59:32.303Z,1.80
2018-02-13T11:02:04.588Z,1.70
2018-02-13T11:04:31.157Z,1.90
2018-02-13T11:06:57.489Z,1.97
2018-02-13T11:09:23.805Z,1.50
2018-02-13T11:11:50.251Z,1.77
2018-02-13T11:14:16.593Z,1.60
2018-02-13T11:16:43.071Z,1.80
2018-02-13T11:19:09.403Z,1.40
2018-02-13T11:21:35.717Z,1.23
2018-02-13T11:24:02.505Z,1.40
2018-02-13T11:26:30.021Z,1.50
2018-02-13T11:28:56.452Z,1.50
2018-02-13T11:31:22.821Z,1.67
2018-02-13T11:33:49.287Z,1.87
2018-02-13T11:36:15.716Z,1.30
2018-02-13T11:38:42.781Z,1.70
2018-02-13T11:41:09.563Z,2.00
2018-02-13T11:43:35.903Z,1.30
2018-02-13T11:46:02.212Z,1.30
2018-02-13T11:48:28.780Z,1.57
2018-02-13T11:50:55.101Z,1.30
2018-02-13T11:53:21.406Z,1.27
2018-02-13T11:55:48.718Z,1.17
2018-02-13T11:58:15.036Z,1.67
2018-02-13T12:00:41.375Z,1.10
2018-02-13T12:03:08.025Z,1.40
2018-02-13T12:05:34.368Z,1.10
2018-02-13T12:08:00.677Z,1.07
2018-02-13T12:10:27.235Z,1.23
2018-02-13T12:12:53.565Z,1.37
2018-02-13T12:15:19.931Z,1.47
2018-02-13T12:17:46.465Z,1.60
2018-02-13T12:20:12.796Z,1.30
2018-02-13T12:22:39.118Z,1.40
2018-02-13T12:25:05.686Z,1.20
2018-02-13T12:27:32.033Z,1.20
2018-02-13T12:29:58.366Z,1.20
2018-02-13T12:32:25.592Z,1.03
2018-02-13T12:34:51.951Z,1.60
2018-02-13T12:37:18.263Z,1.27
2018-02-13T12:39:44.826Z,1.67
2018-02-13T12:42:11.156Z,1.23
2018-02-13T12:44:37.504Z,1.17
2018-02-13T12:47:04.003Z,1.10
2018-02-13T12:49:30.325Z,1.50
2018-02-13T12:51:57.735Z,1.33
2018-02-13T12:54:25.125Z,1.13
2018-02-13T12:56:52.432Z,1.30
2018-02-13T12:59:18.756Z,1.10
2018-02-13T13:01:45.328Z,1.27
2018-02-13T13:04:12.176Z,1.23
2018-02-13T13:06:38.503Z,1.40
2018-02-13T13:09:05.275Z,1.30
2018-02-13T13:11:31.592Z,1.20
2018-02-13T13:13:58.061Z,1.80
2018-02-13T13:16:24.429Z,1.37
2018-02-13T13:18:50.766Z,1.30
2018-02-13T13:21:17.201Z,1.10
2018-02-13T13:23:43.980Z,1.00
2018-02-13T13:26:10.397Z,1.30
2018-02-13T13:28:36.745Z,1.13
2018-02-13T13:31:03.505Z,1.00
2018-02-13T13:33:29.832Z,0.83
2018-02-13T13:35:56.158Z,1.20
2018-02-13T13:38:22.617Z,1.10
2018-02-13T13:40:49.371Z,1.23
2018-02-13T13:43:17.643Z,1.13
2018-02-13T13:45:44.389Z,1.33
2018-02-13T13:48:10.818Z,1.17
2018-02-13T13:50:37.165Z,1.00
2018-02-13T13:53:03.681Z,1.00
2018-02-13T13:55:30.000Z,1.00
2018-02-13T13:57:56.358Z,0.90
2018-02-13T14:00:23.109Z,1.30
2018-02-13T14:02:49.540Z,1.00
2018-02-13T14:05:15.895Z,1.30
2018-02-13T14:07:49.500Z,1.30
2018-02-13T14:10:15.859Z,1.13
2018-02-13T14:12:42.267Z,1.10
2018-02-13T14:15:08.807Z,1.30
2018-02-13T14:17:35.994Z,0.97
2018-02-13T14:20:02.466Z,1.10
2018-02-13T14:22:29.202Z,0.80
2018-02-13T14:24:56.816Z,1.17
2018-02-13T14:27:23.212Z,1.07
2018-02-13T14:29:50.279Z,1.30
2018-02-13T14:32:16.719Z,0.80
2018-02-13T14:34:43.029Z,0.97
2018-02-13T14:37:10.554Z,0.80
2018-02-13T14:39:36.880Z,0.90
2018-02-13T14:42:03.227Z,1.20
2018-02-13T14:44:29.777Z,0.87
2018-02-13T14:46:56.616Z,1.00
2018-02-13T14:49:22.967Z,0.83
2018-02-13T14:51:49.309Z,1.40
2018-02-13T14:54:15.925Z,1.20
2018-02-13T14:56:42.256Z,1.37
2018-02-13T14:59:08.612Z,1.40
2018-02-13T15:01:35.162Z,1.43
2018-02-13T15:04:01.481Z,1.20
2018-02-13T15:06:27.811Z,1.30
2018-02-13T15:08:54.357Z,1.23
2018-02-13T15:11:20.710Z,1.37
2018-02-13T15:13:47.052Z,1.37
2018-02-13T15:16:13.563Z,1.40
2018-02-13T15:18:41.242Z,1.37
2018-02-13T15:21:08.010Z,2.03
2018-02-13T15:23:34.330Z,1.27
2018-02-13T15:26:01.016Z,1.37
2018-02-13T15:28:28.462Z,1.20
2018-02-13T15:30:55.222Z,1.20
2018-02-13T15:33:22.738Z,1.20
2018-02-13T15:35:49.492Z,1.17
2018-02-13T15:38:16.567Z,1.57
2018-02-13T15:40:44.285Z,1.23
2018-02-13T15:43:10.962Z,1.30
2018-02-13T15:45:37.811Z,1.50
2018-02-13T15:48:04.603Z,1.30
2018-02-13T15:50:31.484Z,1.27
2018-02-13T15:52:58.294Z,1.30
2018-02-13T15:55:25.097Z,1.30
2018-02-13T15:57:51.426Z,1.00
2018-02-13T16:00:18.985Z,1.20
2018-02-13T16:02:45.677Z,1.30
2018-02-13T16:05:13.242Z,1.00
2018-02-13T16:07:40.865Z,1.20
2018-02-13T16:10:07.189Z,1.30
2018-02-13T16:12:33.933Z,1.17
2018-02-13T16:15:00.688Z,1.20
2018-02-13T16:17:27.536Z,1.30
2018-02-13T16:19:54.273Z,1.00
2018-02-13T16:22:21.188Z,1.10
2018-02-13T16:24:47.728Z,1.37
2018-02-13T16:27:14.874Z,1.20
2018-02-13T16:29:49.043Z,1.10
2018-02-13T16:32:15.375Z,1.13
2018-02-13T16:34:41.720Z,1.27
2018-02-13T16:37:08.264Z,1.53
2018-02-13T16:39:34.596Z,1.20
2018-02-13T16:42:00.933Z,1.17
2018-02-13T16:44:27.403Z,1.20
2018-02-13T16:46:54.880Z,1.17
2018-02-13T16:49:21.967Z,1.03
2018-02-13T16:51:48.735Z,1.30
2018-02-13T16:54:15.102Z,1.43
2018-02-13T16:56:42.540Z,1.10
2018-02-13T16:59:08.906Z,1.20
2018-02-13T17:01:36.163Z,1.00
2018-02-13T17:04:03.619Z,1.10
2018-02-13T17:06:30.533Z,1.10
2018-02-13T17:08:57.180Z,0.93
2018-02-13T17:11:23.939Z,1.23
2018-02-13T17:13:50.596Z,1.00
2018-02-13T17:16:17.432Z,1.07
2018-02-13T17:18:44.088Z,0.90
2018-02-13T17:21:10.917Z,1.00
2018-02-13T17:23:37.690Z,0.80
2018-02-13T17:26:04.452Z,1.13
2018-02-13T17:28:31.964Z,1.20
2018-02-13T17:30:58.815Z,1.00
2018-02-13T17:33:25.493Z,1.10
2018-02-13T17:35:53.054Z,1.10
2018-02-13T17:38:19.871Z,1.30
2018-02-13T17:40:46.737Z,1.00
2018-02-13T17:43:13.479Z,1.37
2018-02-13T17:45:41.028Z,1.30
2018-02-13T17:48:07.840Z,1.30
2018-02-13T17:50:34.659Z,1.03
2018-02-13T17:53:02.123Z,1.40
2018-02-13T17:55:29.681Z,1.40
2018-02-13T17:57:56.496Z,1.27
2018-02-13T18:00:22.913Z,1.33
2018-02-13T18:02:49.513Z,1.10
2018-02-13T18:05:16.628Z,1.30
2018-02-13T18:07:43.494Z,1.13
2018-02-13T18:10:09.823Z,1.07
2018-02-13T18:12:36.691Z,0.97
2018-02-13T18:15:03.099Z,1.23
2018-02-13T18:17:29.474Z,1.33
2018-02-13T18:19:56.764Z,1.30
2018-02-13T18:22:23.709Z,1.20
2018-02-13T18:24:50.043Z,1.47
2018-02-13T18:27:16.381Z,1.80
2018-02-13T18:29:42.952Z,1.50
2018-02-13T18:32:09.345Z,1.60
2018-02-13T18:34:36.408Z,1.43
2018-02-13T18:37:02.905Z,1.50
2018-02-13T18:39:29.235Z,1.67
2018-02-13T18:41:55.577Z,1.83
2018-02-13T18:44:22.010Z,1.30
2018-02-13T18:46:48.352Z,1.63
2018-02-13T18:49:15.468Z,1.50
2018-02-13T18:51:42.038Z,1.80
2018-02-13T18:54:08.372Z,1.27
2018-02-13T18:56:35.022Z,1.27
2018-02-13T18:59:01.483Z,1.50
2018-02-13T19:01:27.860Z,1.40
2018-02-13T19:03:54.440Z,1.60
2018-02-13T19:06:20.910Z,1.37
2018-02-13T19:08:48.393Z,1.53
2018-02-13T19:11:15.182Z,2.07
2018-02-13T19:13:43.223Z,1.40
2018-02-13T19:26:01.077Z,1.30
2018-02-13T19:28:28.296Z,1.50
2018-02-13T19:30:54.937Z,1.30
2018-02-13T19:33:21.757Z,1.57
2018-02-13T19:35:48.125Z,1.63
2018-02-13T19:38:14.711Z,1.60
2018-02-13T19:40:41.939Z,1.93
2018-02-13T19:43:08.544Z,1.50
2018-02-13T19:45:35.890Z,1.50
2018-02-13T19:48:02.635Z,1.73
2018-02-13T19:50:29.124Z,1.40
2018-02-13T19:52:55.513Z,1.60
2018-02-13T19:55:22.602Z,1.50
2018-02-13T19:57:49.217Z,1.30
2018-02-13T20:00:16.491Z,2.10
2018-02-13T20:02:43.877Z,1.20
2018-02-13T20:05:10.574Z,1.83
2018-02-13T20:07:37.547Z,1.77
2018-02-13T20:10:06.467Z,1.93
2018-02-13T20:12:32.956Z,1.47
2018-02-13T20:14:59.568Z,1.50
2018-02-13T20:17:26.540Z,1.80
2018-02-13T20:19:52.998Z,1.67
2018-02-13T20:22:20.064Z,1.70
2018-02-13T20:24:47.555Z,1.53
2018-02-13T20:27:14.114Z,1.40
2018-02-13T20:29:40.695Z,1.50
2018-02-13T20:32:07.241Z,1.33
2018-02-13T20:34:34.589Z,1.60
2018-02-13T20:37:00.915Z,1.63
2018-02-13T20:39:27.452Z,1.47
2018-02-13T20:41:53.813Z,1.77
2018-02-13T20:44:20.915Z,1.70
2018-02-13T20:46:47.484Z,1.40
2018-02-13T20:49:13.835Z,1.37
2018-02-13T20:51:40.164Z,1.80
2018-02-13T20:54:06.617Z,1.80
2018-02-13T20:56:32.966Z,1.50
2018-02-13T20:59:00.042Z,1.40
2018-02-13T21:01:26.517Z,1.80
2018-02-13T21:03:52.880Z,1.30
2018-02-13T21:06:19.240Z,1.67
2018-02-13T21:08:46.459Z,1.93
2018-02-13T21:11:13.181Z,1.60
2018-02-13T21:13:39.516Z,1.97
2018-02-13T21:16:06.248Z,1.77
2018-02-13T21:18:32.751Z,1.60
2018-02-13T21:20:59.831Z,1.80
2018-02-13T21:23:26.428Z,1.90
2018-02-13T21:25:52.795Z,1.80
2018-02-13T21:28:19.890Z,2.00
2018-02-13T21:30:46.357Z,1.70
2018-02-13T21:33:12.708Z,2.10
2018-02-13T21:35:39.036Z,2.20
2018-02-13T21:38:05.483Z,1.90
2018-02-13T21:40:38.844Z,2.13
2018-02-13T21:43:05.315Z,1.90
2018-02-13T21:45:31.649Z,1.90
2018-02-13T21:47:57.967Z,1.83
2018-02-13T21:50:24.497Z,1.97
2018-02-13T21:52:51.087Z,2.10
2018-02-13T21:55:18.154Z,1.40
2018-02-13T21:57:44.721Z,1.60
2018-02-13T22:00:11.175Z,2.07
2018-02-13T22:02:44.453Z,1.80
2018-02-13T22:05:13.728Z,2.00
2018-02-13T22:07:40.419Z,1.83
2018-02-13T22:10:06.756Z,2.00
2018-02-13T22:12:33.089Z,1.97
2018-02-13T22:14:59.731Z,1.93
2018-02-13T22:17:26.057Z,2.20
2018-02-13T22:19:52.378Z,2.20
2018-02-13T22:22:19.172Z,1.87
2018-02-13T22:24:47.373Z,2.10
2018-02-13T22:27:14.436Z,1.80
2018-02-13T22:29:40.782Z,1.87
2018-02-13T22:32:07.944Z,2.40
2018-02-13T22:34:34.289Z,2.03
2018-02-13T22:37:00.637Z,2.43
2018-02-13T22:39:27.180Z,2.20
2018-02-13T22:41:53.492Z,1.80
2018-02-13T22:44:19.903Z,1.83
2018-02-13T22:46:47.117Z,2.80
2018-02-13T22:49:13.412Z,1.97
2018-02-13T22:51:39.719Z,2.10
2018-02-13T22:54:06.356Z,2.10
2018-02-13T22:56:33.185Z,2.03
2018-02-13T22:58:59.546Z,1.80
2018-02-13T23:01:26.053Z,2.23
2018-02-13T23:03:52.769Z,1.57
2018-02-13T23:06:19.084Z,1.90
2018-02-13T23:08:46.144Z,2.00
2018-02-13T23:11:13.313Z,1.90
2018-02-13T23:13:40.015Z,1.90
2018-02-13T23:16:06.329Z,1.90
2018-02-13T23:18:33.024Z,2.00
2018-02-13T23:20:59.330Z,2.00
2018-02-13T23:23:26.069Z,1.73
2018-02-13T23:25:52.905Z,2.33
2018-02-13T23:28:19.228Z,2.20
2018-02-13T23:30:45.547Z,1.90
2018-02-13T23:33:12.128Z,2.00
2018-02-13T23:35:38.732Z,1.83
2018-02-13T23:38:05.044Z,2.00
2018-02-13T23:40:32.091Z,1.93
2018-02-13T23:42:59.301Z,1.67
2018-02-13T23:45:26.048Z,1.87
2018-02-13T23:47:52.356Z,1.90
2018-02-13T23:50:19.062Z,1.90
2018-02-13T23:52:45.706Z,1.90
2018-02-13T23:55:12.441Z,1.70
2018-02-13T23:57:40.223Z,2.03
